South Pasadena, Florida
Current Conditions -  °F | °C
As of 9:53 AM on Friday 28 Nov 2014 (Local Time) from KSPG Reporting Station
Clear Clear  
Wind Chill: 44°   Ceiling: Unl
Heat Index: 49°   Visibility: 10mi
Dew Point: 36°   Wind: 12mph
Humidity: 61%   Direction: 50°NE
Pressure: 30.35"   Gusts: NA
Location:  27.7562°N, 82.7184°W
Report Text: KSPG 281453Z 05010KT 10SM CLR 09/02 A3035 RMK AO2 SLP276 T00940022 51014
Loading
Personal Weather Stations






























Interactive Weather Map New forecast layout! Learn more

10-Day Weather Forecast

Advertisements
Track Severe Weather on mobile